Time;durP1;ratioP1;P1;durP2;ratioP2;P2;SDS_P1;SDS_P2;PMS_P1;PMS_P2;Temp;Humidity;BMP_temperature;BMP_pressure;BME280_temperature;BME280_humidity;BME280_pressure;Samples;Min_cycle;Max_cycle;Signal;HPM_P1;HPM_P2
2022/07/07 00:01:57;;;;;;;2.20;2.00;;;17.20;99.90;;;;;;5005954;28;20483;-73
2022/07/07 00:04:24;;;;;;;2.30;2.10;;;17.20;99.90;;;;;;4994007;28;20477;-73
2022/07/07 00:06:50;;;;;;;2.23;1.90;;;17.10;99.90;;;;;;4997300;28;20824;-73
2022/07/07 00:09:17;;;;;;;4.53;2.03;;;17.20;99.90;;;;;;5008188;28;20504;-73
2022/07/07 00:11:44;;;;;;;2.90;2.00;;;17.10;99.90;;;;;;4997779;28;20852;-73
2022/07/07 00:14:12;;;;;;;4.47;2.33;;;17.10;99.90;;;;;;4998368;28;20459;-73
2022/07/07 00:16:39;;;;;;;2.93;1.80;;;17.10;99.90;;;;;;5009304;28;20466;-73
2022/07/07 00:19:06;;;;;;;2.30;2.10;;;17.10;99.90;;;;;;4999471;28;20484;-73
2022/07/07 00:21:32;;;;;;;2.37;2.17;;;17.10;99.90;;;;;;5009283;28;20512;-73
2022/07/07 00:23:59;;;;;;;2.43;2.10;;;17.10;99.90;;;;;;4998645;28;20433;-73
2022/07/07 00:26:26;;;;;;;5.43;1.70;;;17.10;99.90;;;;;;5010554;28;20960;-72
2022/07/07 00:28:53;;;;;;;2.33;2.13;;;17.10;99.90;;;;;;4997917;28;20996;-73
2022/07/07 00:31:20;;;;;;;4.83;2.27;;;17.00;99.90;;;;;;5009170;28;20868;-73
2022/07/07 00:33:47;;;;;;;2.50;2.30;;;17.00;99.90;;;;;;4997576;28;20482;-73
2022/07/07 00:36:14;;;;;;;3.87;2.03;;;17.00;99.90;;;;;;4993110;28;20582;-73
2022/07/07 00:38:41;;;;;;;7.70;2.10;;;17.00;99.90;;;;;;5003732;28;20929;-73
2022/07/07 00:41:08;;;;;;;1.87;1.77;;;17.00;99.90;;;;;;5002390;28;20425;-73
2022/07/07 00:43:36;;;;;;;4.80;2.00;;;16.90;99.90;;;;;;4999007;28;20442;-73
2022/07/07 00:46:04;;;;;;;2.13;1.93;;;16.80;99.90;;;;;;4996695;28;20449;-74
2022/07/07 00:48:34;;;;;;;4.73;2.60;;;16.70;99.90;;;;;;5004856;28;20449;-73
2022/07/07 00:51:01;;;;;;;5.00;3.20;;;16.60;99.90;;;;;;4996853;28;20483;-73
2022/07/07 00:53:27;;;;;;;2.83;2.57;;;16.60;99.90;;;;;;4993558;28;20487;-73
2022/07/07 00:55:54;;;;;;;2.53;2.27;;;16.50;99.90;;;;;;4993730;28;20475;-72
2022/07/07 00:58:21;;;;;;;5.80;2.20;;;16.50;99.90;;;;;;4998168;28;20458;-73
2022/07/07 01:00:48;;;;;;;5.43;2.37;;;16.40;99.90;;;;;;4988886;28;20426;-73
2022/07/07 01:03:15;;;;;;;2.40;2.20;;;16.40;99.90;;;;;;5006452;28;20429;-73
2022/07/07 01:05:46;;;;;;;3.30;2.20;;;16.40;99.90;;;;;;5008064;28;20448;-73
2022/07/07 01:08:15;;;;;;;7.93;2.40;;;16.40;99.90;;;;;;4999766;28;20488;-73
2022/07/07 01:10:42;;;;;;;2.57;2.37;;;16.40;99.90;;;;;;4992476;28;20452;-72
2022/07/07 01:13:09;;;;;;;2.87;2.30;;;16.40;99.90;;;;;;5002240;28;20481;-72
2022/07/07 01:15:36;;;;;;;2.77;2.57;;;16.30;99.90;;;;;;4994086;28;20449;-72
2022/07/07 01:18:02;;;;;;;2.90;2.30;;;16.30;99.90;;;;;;4996341;28;20465;-72
2022/07/07 01:20:29;;;;;;;4.63;2.43;;;16.30;99.90;;;;;;5009900;28;20447;-73
2022/07/07 01:22:57;;;;;;;7.73;2.50;;;16.30;99.90;;;;;;5000151;28;20430;-73
2022/07/07 01:25:24;;;;;;;2.90;2.67;;;16.30;99.90;;;;;;4994466;28;20457;-73
2022/07/07 01:27:52;;;;;;;5.37;3.00;;;16.30;99.90;;;;;;4993216;28;20510;-73
2022/07/07 01:30:19;;;;;;;4.50;2.30;;;16.30;99.90;;;;;;5001343;28;20845;-73
2022/07/07 01:32:46;;;;;;;4.50;2.20;;;16.30;99.90;;;;;;5008355;28;20461;-73
2022/07/07 01:35:13;;;;;;;4.40;2.50;;;16.30;99.90;;;;;;4996808;28;20541;-74
2022/07/07 01:37:39;;;;;;;4.00;2.83;;;16.30;99.90;;;;;;4997341;28;20479;-73
2022/07/07 01:40:08;;;;;;;3.17;2.23;;;16.20;99.90;;;;;;4995364;28;20940;-73
2022/07/07 01:42:35;;;;;;;9.43;3.43;;;16.20;99.90;;;;;;5001724;28;20448;-74
2022/07/07 01:45:01;;;;;;;2.90;2.40;;;16.20;99.90;;;;;;4998918;28;20517;-73
2022/07/07 01:47:28;;;;;;;4.03;2.23;;;16.20;99.90;;;;;;5003725;28;20425;-73
2022/07/07 01:49:55;;;;;;;6.53;2.60;;;16.20;99.90;;;;;;4998710;28;20455;-73
2022/07/07 01:52:21;;;;;;;3.20;2.40;;;16.20;99.90;;;;;;5001068;28;20465;-73
2022/07/07 01:54:48;;;;;;;2.30;2.20;;;16.20;99.90;;;;;;4992107;28;20498;-73
2022/07/07 01:57:16;;;;;;;5.90;2.37;;;16.20;99.90;;;;;;5000221;28;20446;-73
2022/07/07 01:59:43;;;;;;;3.20;2.10;;;16.20;99.90;;;;;;5005187;28;20997;-73
2022/07/07 02:02:10;;;;;;;4.00;3.27;;;16.20;99.90;;;;;;4998870;28;20820;-73
2022/07/07 02:04:37;;;;;;;2.83;2.17;;;16.20;99.90;;;;;;4992590;28;20818;-73
2022/07/07 02:07:04;;;;;;;2.30;2.00;;;16.20;99.90;;;;;;5005551;28;20451;-73
2022/07/07 02:09:30;;;;;;;3.97;1.90;;;16.20;99.90;;;;;;4995557;28;20828;-73
2022/07/07 02:11:57;;;;;;;2.93;1.90;;;16.30;99.90;;;;;;5000357;28;20976;-73
2022/07/07 02:14:25;;;;;;;6.33;2.23;;;16.30;99.90;;;;;;4988515;28;20487;-73
2022/07/07 02:16:52;;;;;;;3.90;2.30;;;16.30;99.90;;;;;;4998675;28;20433;-73
2022/07/07 02:19:18;;;;;;;2.23;2.03;;;16.40;99.90;;;;;;4995167;28;20472;-74
2022/07/07 02:21:45;;;;;;;2.53;2.30;;;16.50;99.90;;;;;;5000072;28;20437;-73
2022/07/07 02:24:12;;;;;;;2.80;2.33;;;16.50;99.90;;;;;;4994606;28;20506;-73
2022/07/07 02:26:38;;;;;;;5.47;1.97;;;16.60;99.90;;;;;;5004981;28;20441;-73
2022/07/07 02:29:05;;;;;;;6.00;2.27;;;16.70;99.90;;;;;;4999959;28;20458;-73
2022/07/07 02:31:33;;;;;;;4.40;2.30;;;16.70;99.90;;;;;;4991699;28;20459;-73
2022/07/07 02:34:00;;;;;;;3.20;2.23;;;16.80;99.90;;;;;;4987498;28;20483;-73
2022/07/07 02:36:27;;;;;;;4.53;2.60;;;16.80;99.90;;;;;;5002313;28;20470;-73
2022/07/07 02:38:54;;;;;;;4.23;2.50;;;16.80;99.90;;;;;;4997603;28;20976;-73
2022/07/07 02:41:20;;;;;;;4.47;2.50;;;16.80;99.90;;;;;;4991601;28;20808;-73
2022/07/07 02:43:47;;;;;;;3.57;2.00;;;16.80;99.90;;;;;;5005124;28;20425;-73
2022/07/07 02:46:14;;;;;;;4.23;2.03;;;16.90;99.90;;;;;;4996484;28;20866;-73
2022/07/07 02:48:42;;;;;;;4.07;2.50;;;16.90;99.90;;;;;;5004558;28;20537;-73
2022/07/07 02:51:09;;;;;;;6.93;2.07;;;16.90;99.90;;;;;;4995970;28;20437;-73
2022/07/07 02:53:36;;;;;;;7.97;2.60;;;16.90;99.90;;;;;;4994687;28;21028;-73
2022/07/07 02:56:03;;;;;;;3.00;2.20;;;16.90;99.90;;;;;;5004935;28;20482;-73
2022/07/07 02:58:30;;;;;;;3.27;2.03;;;16.90;99.90;;;;;;4995834;28;20867;-73
2022/07/07 03:00:57;;;;;;;2.57;2.17;;;16.90;99.90;;;;;;5009434;28;20486;-73
2022/07/07 03:03:23;;;;;;;2.40;2.30;;;16.90;99.90;;;;;;5005465;28;20431;-73
2022/07/07 03:05:51;;;;;;;2.10;1.90;;;16.90;99.90;;;;;;5004847;28;20447;-73
2022/07/07 03:08:18;;;;;;;3.40;2.17;;;16.90;99.90;;;;;;5007561;28;20420;-73
2022/07/07 03:10:45;;;;;;;2.30;2.10;;;16.80;99.90;;;;;;4998967;28;20525;-73
2022/07/07 03:13:12;;;;;;;2.67;2.07;;;16.80;99.90;;;;;;4999834;28;20516;-73
2022/07/07 03:15:38;;;;;;;2.30;2.00;;;16.80;99.90;;;;;;4993400;28;20449;-73
2022/07/07 03:18:05;;;;;;;11.83;2.47;;;16.80;99.90;;;;;;4995518;28;20434;-73
2022/07/07 03:20:32;;;;;;;5.20;2.03;;;16.80;99.90;;;;;;4994968;28;20437;-73
2022/07/07 03:23:00;;;;;;;2.13;2.03;;;16.80;99.90;;;;;;4998693;28;20420;-74
2022/07/07 03:25:26;;;;;;;9.67;2.40;;;16.80;99.90;;;;;;5004261;28;20466;-73
2022/07/07 03:27:53;;;;;;;4.40;2.73;;;16.80;99.90;;;;;;4994281;28;20529;-73
2022/07/07 03:30:19;;;;;;;5.23;2.10;;;16.80;99.90;;;;;;5003030;28;20454;-73
2022/07/07 03:32:46;;;;;;;2.17;1.97;;;16.80;99.90;;;;;;4997678;28;20426;-73
2022/07/07 03:35:13;;;;;;;2.90;2.23;;;16.80;99.90;;;;;;5003526;28;20521;-73
2022/07/07 03:37:40;;;;;;;2.60;2.40;;;16.80;99.90;;;;;;5001158;28;20876;-73
2022/07/07 03:40:09;;;;;;;3.77;2.73;;;16.70;99.90;;;;;;4994172;28;20426;-73
2022/07/07 03:42:37;;;;;;;3.57;2.77;;;16.70;99.90;;;;;;4993846;28;20425;-73
2022/07/07 03:45:05;;;;;;;2.60;2.40;;;16.70;99.90;;;;;;4995420;28;20446;-73
2022/07/07 03:47:32;;;;;;;5.83;2.77;;;16.70;99.90;;;;;;5008602;28;20991;-74
2022/07/07 03:49:58;;;;;;;7.10;2.80;;;16.80;99.90;;;;;;4994140;28;20508;-73
2022/07/07 03:52:25;;;;;;;6.57;3.10;;;16.80;99.90;;;;;;4995741;28;20425;-73
2022/07/07 03:54:52;;;;;;;7.23;3.93;;;17.00;99.90;;;;;;5008733;28;20467;-73
2022/07/07 03:57:20;;;;;;;5.13;3.20;;;17.10;99.90;;;;;;4992925;28;20426;-72
2022/07/07 03:59:46;;;;;;;5.67;3.17;;;17.10;99.90;;;;;;5007838;28;20479;-72
2022/07/07 04:02:13;;;;;;;7.83;3.33;;;17.20;99.90;;;;;;4998072;28;20446;-72
2022/07/07 04:04:39;;;;;;;3.87;2.80;;;17.30;99.90;;;;;;4997318;28;20453;-73
2022/07/07 04:07:06;;;;;;;3.20;2.80;;;17.30;99.90;;;;;;5009292;28;20512;-73
2022/07/07 04:09:33;;;;;;;3.33;3.00;;;17.40;99.90;;;;;;5006266;28;20430;-73
2022/07/07 04:11:59;;;;;;;7.20;3.10;;;17.40;99.90;;;;;;4994126;28;20831;-73
2022/07/07 04:14:27;;;;;;;3.03;2.70;;;17.40;99.90;;;;;;5007240;28;20524;-73
2022/07/07 04:16:54;;;;;;;5.20;3.17;;;17.40;99.90;;;;;;5004403;28;21033;-73
2022/07/07 04:19:21;;;;;;;5.00;3.20;;;17.40;99.90;;;;;;4994551;28;20434;-73
2022/07/07 04:21:48;;;;;;;3.13;2.90;;;17.50;99.90;;;;;;4998963;28;20487;-72
2022/07/07 04:24:14;;;;;;;4.10;2.70;;;17.60;99.90;;;;;;5005295;28;20420;-72
2022/07/07 04:26:41;;;;;;;3.40;2.80;;;17.70;99.90;;;;;;4998123;28;20479;-73
2022/07/07 04:29:08;;;;;;;5.90;3.07;;;17.80;99.90;;;;;;5003013;28;20509;-72
2022/07/07 04:31:36;;;;;;;7.37;3.27;;;17.90;99.90;;;;;;4998346;28;20495;-72
2022/07/07 04:34:04;;;;;;;4.43;2.77;;;18.00;99.90;;;;;;5008176;28;20461;-72
2022/07/07 04:36:30;;;;;;;6.80;3.30;;;18.10;99.90;;;;;;4995368;28;20467;-73
2022/07/07 04:38:57;;;;;;;3.93;3.07;;;18.10;99.90;;;;;;4989739;28;20514;-73
2022/07/07 04:41:24;;;;;;;11.90;3.00;;;18.10;99.90;;;;;;4993949;28;20449;-72
2022/07/07 04:43:50;;;;;;;3.53;3.27;;;18.00;99.90;;;;;;4989619;28;20430;-72
2022/07/07 04:46:17;;;;;;;7.67;3.07;;;18.00;99.90;;;;;;4999093;28;20480;-72
2022/07/07 04:48:45;;;;;;;9.73;2.80;;;18.00;99.90;;;;;;4997445;28;20434;-72
2022/07/07 04:51:12;;;;;;;5.37;3.17;;;18.00;99.90;;;;;;5007554;28;20422;-73
2022/07/07 04:53:38;;;;;;;3.53;2.90;;;17.90;99.90;;;;;;4992637;28;20474;-73
2022/07/07 04:56:05;;;;;;;5.00;2.87;;;17.90;99.90;;;;;;5007329;28;20485;-72
2022/07/07 04:58:32;;;;;;;6.40;3.43;;;17.90;99.90;;;;;;5000798;28;20429;-73
2022/07/07 05:00:59;;;;;;;4.83;2.80;;;17.80;99.90;;;;;;5002908;28;20447;-73
2022/07/07 05:03:25;;;;;;;3.10;2.87;;;17.70;99.90;;;;;;4998330;28;20481;-73
2022/07/07 05:05:53;;;;;;;5.50;3.30;;;17.70;99.90;;;;;;5003229;28;20581;-73
2022/07/07 05:08:20;;;;;;;7.03;3.27;;;17.70;99.90;;;;;;5000038;28;20441;-73
2022/07/07 05:10:46;;;;;;;8.57;3.30;;;17.80;99.90;;;;;;4992450;28;20898;-73
2022/07/07 05:13:13;;;;;;;7.70;3.70;;;17.70;99.90;;;;;;4996783;28;20421;-73
2022/07/07 05:15:40;;;;;;;5.00;3.50;;;17.70;99.90;;;;;;4995562;28;20891;-74
2022/07/07 05:18:07;;;;;;;5.90;3.60;;;17.70;99.90;;;;;;5000093;28;20425;-72
2022/07/07 05:20:33;;;;;;;3.83;2.97;;;17.80;99.90;;;;;;5009074;28;21017;-74
2022/07/07 05:23:01;;;;;;;7.23;3.57;;;17.90;99.90;;;;;;5008047;28;20480;-72
2022/07/07 05:25:29;;;;;;;8.67;3.70;;;17.90;99.90;;;;;;5006535;28;20478;-73
2022/07/07 05:27:55;;;;;;;5.93;3.80;;;17.80;99.90;;;;;;5002566;28;20463;-74
2022/07/07 05:30:22;;;;;;;5.03;4.10;;;17.70;99.90;;;;;;5005149;28;20491;-75
2022/07/07 05:32:49;;;;;;;5.20;4.07;;;17.70;99.90;;;;;;5010000;28;20472;-74
2022/07/07 05:35:16;;;;;;;4.50;3.57;;;17.60;99.90;;;;;;5002344;28;20499;-73
2022/07/07 05:37:43;;;;;;;5.63;3.67;;;17.70;99.90;;;;;;4991941;28;20510;-74
2022/07/07 05:40:12;;;;;;;7.23;3.53;;;17.70;99.90;;;;;;4994071;28;20442;-74
2022/07/07 05:42:38;;;;;;;7.87;4.03;;;17.60;99.90;;;;;;5007884;28;20450;-74
2022/07/07 05:45:06;;;;;;;4.60;3.63;;;17.70;99.90;;;;;;4997746;28;20976;-74
2022/07/07 05:47:33;;;;;;;4.17;3.80;;;17.70;99.90;;;;;;5000739;28;20437;-74
2022/07/07 05:50:00;;;;;;;5.03;3.67;;;17.70;99.90;;;;;;4995468;28;20927;-74
2022/07/07 05:52:27;;;;;;;4.53;3.40;;;17.80;99.90;;;;;;4997558;28;20430;-74
2022/07/07 05:54:53;;;;;;;3.70;3.40;;;17.90;99.90;;;;;;4990727;28;20487;-74
2022/07/07 05:57:21;;;;;;;6.27;3.67;;;17.90;99.90;;;;;;4992355;28;20462;-74
2022/07/07 05:59:48;;;;;;;5.80;3.53;;;17.90;99.90;;;;;;4991939;28;20454;-74
2022/07/07 06:02:14;;;;;;;9.33;3.40;;;17.90;99.90;;;;;;5006621;28;20432;-75
2022/07/07 06:04:41;;;;;;;12.60;3.67;;;17.80;99.90;;;;;;5000511;28;20438;-76
2022/07/07 06:07:08;;;;;;;4.80;3.93;;;17.80;99.90;;;;;;4998071;28;20806;-75
2022/07/07 06:09:35;;;;;;;5.07;3.70;;;17.80;99.90;;;;;;5001888;28;20514;-76
2022/07/07 06:12:01;;;;;;;6.33;3.10;;;17.90;99.90;;;;;;5001069;28;20508;-76
2022/07/07 06:14:29;;;;;;;6.17;3.30;;;17.90;99.90;;;;;;4995318;28;20469;-75
2022/07/07 06:16:56;;;;;;;7.23;3.30;;;18.00;99.90;;;;;;5000918;28;20469;-76
2022/07/07 06:19:23;;;;;;;4.63;2.97;;;18.10;99.90;;;;;;4991829;28;21144;-76
2022/07/07 06:21:49;;;;;;;5.00;3.13;;;18.10;99.90;;;;;;5002274;28;20436;-76
2022/07/07 06:24:16;;;;;;;13.13;3.30;;;18.30;99.90;;;;;;5009017;28;20491;-76
2022/07/07 06:26:43;;;;;;;6.13;3.60;;;18.30;99.90;;;;;;5007460;28;21109;-76
2022/07/07 06:29:09;;;;;;;5.47;3.00;;;18.40;99.90;;;;;;5001620;28;20498;-76
2022/07/07 06:31:37;;;;;;;3.63;3.10;;;18.50;99.90;;;;;;5007706;28;20441;-75
2022/07/07 06:34:04;;;;;;;6.33;3.10;;;18.50;99.90;;;;;;4998053;28;20461;-74
2022/07/07 06:36:31;;;;;;;5.07;3.20;;;18.50;99.90;;;;;;4998115;28;20972;-76
2022/07/07 06:38:57;;;;;;;3.27;3.00;;;18.50;99.90;;;;;;4995387;28;20504;-74
2022/07/07 06:41:24;;;;;;;3.50;3.20;;;18.50;99.90;;;;;;5004689;28;20510;-73
2022/07/07 06:43:51;;;;;;;5.03;3.80;;;18.50;99.90;;;;;;5005011;28;20933;-74
2022/07/07 06:46:18;;;;;;;3.50;3.20;;;18.50;99.90;;;;;;4997373;28;20485;-77
2022/07/07 06:48:46;;;;;;;3.53;3.03;;;18.40;99.90;;;;;;5003570;28;20458;-75
2022/07/07 06:51:12;;;;;;;4.40;4.00;;;18.40;99.90;;;;;;5003013;28;20532;-74
2022/07/07 06:53:39;;;;;;;7.37;3.70;;;18.40;99.90;;;;;;5007500;28;20462;-76
2022/07/07 06:56:06;;;;;;;4.53;3.90;;;18.50;99.90;;;;;;4998759;28;20517;-76
2022/07/07 06:58:33;;;;;;;4.63;3.87;;;18.60;99.90;;;;;;4994179;28;20506;-73
2022/07/07 07:00:59;;;;;;;4.00;3.60;;;18.60;99.90;;;;;;4998600;28;20479;-73
2022/07/07 07:03:26;;;;;;;8.30;4.50;;;18.70;99.90;;;;;;5004143;28;20461;-74
2022/07/07 07:05:54;;;;;;;8.57;4.30;;;18.70;99.90;;;;;;5005919;28;21279;-74
2022/07/07 07:08:21;;;;;;;4.70;4.20;;;18.70;99.90;;;;;;5003575;28;20506;-76
2022/07/07 07:10:48;;;;;;;6.50;3.97;;;18.70;99.90;;;;;;4991577;28;20821;-76
2022/07/07 07:13:14;;;;;;;5.87;4.03;;;18.70;99.90;;;;;;5000761;28;20421;-77
2022/07/07 07:15:41;;;;;;;7.40;4.30;;;18.80;99.90;;;;;;5007539;28;20487;-75
2022/07/07 07:18:07;;;;;;;20.60;4.03;;;18.60;99.90;;;;;;4999545;28;20455;-78
2022/07/07 07:20:35;;;;;;;6.80;3.90;;;18.60;99.90;;;;;;4999449;28;20452;-73
2022/07/07 07:23:03;;;;;;;7.27;4.57;;;18.50;99.90;;;;;;5000154;28;20203;-73
2022/07/07 07:25:29;;;;;;;4.70;4.30;;;18.50;99.90;;;;;;4995396;28;20479;-73
2022/07/07 07:27:56;;;;;;;7.20;4.20;;;18.40;99.90;;;;;;4990498;28;20451;-72
2022/07/07 07:30:23;;;;;;;4.30;3.90;;;18.50;99.90;;;;;;4993357;28;20459;-73
2022/07/07 07:32:50;;;;;;;6.00;3.70;;;18.60;99.90;;;;;;4999110;28;20432;-73
2022/07/07 07:35:17;;;;;;;3.70;3.40;;;18.70;99.90;;;;;;5002501;28;20536;-73
2022/07/07 07:37:43;;;;;;;4.00;3.50;;;18.70;99.90;;;;;;5001361;28;20430;-73
2022/07/07 07:40:12;;;;;;;3.93;3.63;;;18.70;99.90;;;;;;4995444;28;20513;-73
2022/07/07 07:42:39;;;;;;;4.43;4.03;;;18.70;99.90;;;;;;5001414;28;20425;-72
2022/07/07 07:45:11;;;;;;;7.93;4.40;;;18.80;99.90;;;;;;5003598;28;20600;-72
2022/07/07 07:47:38;;;;;;;3.50;3.20;;;19.00;99.90;;;;;;5003352;28;20450;-73
2022/07/07 07:50:06;;;;;;;14.13;3.70;;;19.10;99.90;;;;;;5001787;28;20916;-73
2022/07/07 07:52:33;;;;;;;4.50;3.40;;;19.00;99.90;;;;;;5004250;28;20440;-73
2022/07/07 07:54:59;;;;;;;3.87;3.57;;;18.90;99.90;;;;;;4997351;28;20524;-73
2022/07/07 07:57:27;;;;;;;3.77;3.47;;;18.80;99.90;;;;;;4995427;28;20460;-73
2022/07/07 07:59:54;;;;;;;3.50;3.20;;;18.80;99.90;;;;;;4990042;28;20426;-73
2022/07/07 08:02:22;;;;;;;10.27;3.97;;;18.90;99.90;;;;;;4994523;28;20781;-73
2022/07/07 08:04:48;;;;;;;3.60;3.30;;;18.90;99.90;;;;;;5003713;28;20852;-73
2022/07/07 08:07:15;;;;;;;4.10;3.57;;;19.00;99.90;;;;;;4998901;28;21068;-73
2022/07/07 08:09:42;;;;;;;12.23;3.77;;;19.00;99.90;;;;;;4994416;28;20880;-73
2022/07/07 08:12:08;;;;;;;6.23;3.90;;;19.00;99.90;;;;;;4996980;28;20463;-73
2022/07/07 08:14:36;;;;;;;5.17;4.23;;;19.00;99.90;;;;;;4998068;28;20487;-73
2022/07/07 08:17:03;;;;;;;4.37;3.20;;;19.10;99.90;;;;;;4995650;28;20458;-73
2022/07/07 08:19:30;;;;;;;6.07;3.40;;;19.20;99.90;;;;;;4994411;28;20464;-73
2022/07/07 08:21:57;;;;;;;8.17;3.00;;;19.20;99.90;;;;;;4996243;28;20451;-73
2022/07/07 08:24:23;;;;;;;3.90;3.40;;;19.20;99.90;;;;;;5000550;28;21765;-73
2022/07/07 08:26:50;;;;;;;3.57;3.17;;;19.30;99.90;;;;;;5004105;28;20450;-73
2022/07/07 08:29:17;;;;;;;4.80;3.37;;;19.20;99.90;;;;;;4993324;28;20463;-73
2022/07/07 08:31:45;;;;;;;6.83;3.40;;;19.10;99.90;;;;;;5003898;28;20424;-73
2022/07/07 08:34:11;;;;;;;3.60;3.30;;;19.10;99.90;;;;;;5001685;28;20458;-73
2022/07/07 08:36:38;;;;;;;6.47;4.00;;;19.20;99.90;;;;;;4996715;28;20520;-73
2022/07/07 08:39:05;;;;;;;4.03;3.73;;;19.20;99.90;;;;;;4999018;28;20502;-73
2022/07/07 08:41:32;;;;;;;4.13;3.67;;;19.20;99.90;;;;;;5000387;28;20505;-74
2022/07/07 08:43:59;;;;;;;7.07;4.40;;;19.30;99.90;;;;;;5001591;28;20852;-73
2022/07/07 08:46:26;;;;;;;11.00;5.30;;;19.10;99.90;;;;;;4989883;28;20541;-73
2022/07/07 08:48:55;;;;;;;8.43;4.80;;;18.90;99.90;;;;;;5001833;28;20420;-74
2022/07/07 08:51:23;;;;;;;7.37;4.83;;;18.80;99.90;;;;;;4998895;28;20455;-73
2022/07/07 08:53:49;;;;;;;8.03;4.70;;;18.70;99.90;;;;;;4994098;28;20558;-73
2022/07/07 08:56:17;;;;;;;5.17;4.67;;;18.50;99.90;;;;;;4992786;28;20464;-73
2022/07/07 08:58:45;;;;;;;5.30;4.83;;;18.30;99.90;;;;;;4990629;28;20975;-72
2022/07/07 09:01:11;;;;;;;6.47;4.70;;;18.10;99.90;;;;;;4998118;28;20531;-73
2022/07/07 09:03:38;;;;;;;4.87;3.97;;;18.10;99.90;;;;;;4998710;28;20446;-72
2022/07/07 09:06:07;;;;;;;5.23;4.30;;;18.00;99.90;;;;;;4996625;28;20474;-72
2022/07/07 09:08:34;;;;;;;4.67;4.27;;;17.90;99.90;;;;;;5000485;28;20496;-72
2022/07/07 09:11:00;;;;;;;7.50;3.40;;;18.00;99.90;;;;;;5000349;28;20519;-73
2022/07/07 09:13:29;;;;;;;3.70;3.40;;;18.10;99.90;;;;;;4994292;28;20421;-72
2022/07/07 09:15:57;;;;;;;2.80;2.70;;;18.20;99.90;;;;;;4991117;28;21048;-73
2022/07/07 09:18:35;;;;;;;3.10;2.90;;;18.40;99.90;;;;;;4997496;28;20455;-73
2022/07/07 09:21:03;;;;;;;4.10;2.70;;;18.40;99.90;;;;;;4994941;28;20429;-72
2022/07/07 09:23:31;;;;;;;2.87;2.67;;;18.40;99.90;;;;;;4994767;28;20512;-73
2022/07/07 09:25:58;;;;;;;3.33;3.13;;;18.40;99.90;;;;;;4993451;28;20541;-73
2022/07/07 09:28:26;;;;;;;3.00;2.80;;;18.60;99.90;;;;;;4996802;28;20425;-73
2022/07/07 09:30:54;;;;;;;3.93;2.70;;;18.80;99.90;;;;;;4991172;28;20430;-74
2022/07/07 09:33:22;;;;;;;3.10;2.83;;;18.90;99.90;;;;;;4994042;28;20438;-73
2022/07/07 09:38:37;;;;;;;2.20;2.10;;;19.40;99.90;;;;;;4994988;28;20581;-74
2022/07/07 09:41:08;;;;;;;3.77;2.60;;;19.70;99.90;;;;;;4995256;28;20503;-74
2022/07/07 09:43:37;;;;;;;2.30;2.20;;;20.00;99.90;;;;;;4994639;28;20455;-74
2022/07/07 09:46:15;;;;;;;2.43;2.20;;;20.20;99.90;;;;;;5000149;28;20466;-73
2022/07/07 09:48:43;;;;;;;2.30;2.03;;;20.20;99.90;;;;;;5002798;28;20600;-73
2022/07/07 09:51:18;;;;;;;2.47;2.27;;;20.00;99.90;;;;;;4997255;28;20512;-73
2022/07/07 09:53:58;;;;;;;2.80;2.20;;;20.10;99.90;;;;;;4999329;28;20507;-73
2022/07/07 09:56:25;;;;;;;2.00;1.87;;;20.70;99.90;;;;;;4995869;28;20532;-72
2022/07/07 09:58:53;;;;;;;2.10;2.00;;;21.40;99.90;;;;;;5009749;28;20458;-71
2022/07/07 10:01:24;;;;;;;2.53;2.33;;;21.90;99.90;;;;;;4996891;28;20455;-73
2022/07/07 10:03:52;;;;;;;3.43;2.20;;;22.00;99.90;;;;;;5001293;28;20969;-73
2022/07/07 10:06:19;;;;;;;2.30;2.20;;;22.10;99.90;;;;;;4992036;28;20565;-72
2022/07/07 10:08:49;;;;;;;3.90;2.50;;;21.70;99.90;;;;;;5007397;28;20898;-73
2022/07/07 10:11:19;;;;;;;3.53;2.57;;;21.80;99.90;;;;;;5000590;28;20469;-72
2022/07/07 10:13:49;;;;;;;2.90;2.70;;;21.90;99.90;;;;;;4998706;28;20866;-74
2022/07/07 10:16:17;;;;;;;2.60;2.50;;;21.80;99.90;;;;;;5004416;28;20920;-74
2022/07/07 10:18:44;;;;;;;3.63;3.33;;;21.60;99.90;;;;;;4999065;28;20451;-73
2022/07/07 10:21:11;;;;;;;3.50;3.20;;;21.50;99.90;;;;;;5004725;28;20976;-73
2022/07/07 10:23:38;;;;;;;7.27;4.40;;;21.40;99.90;;;;;;5001926;28;20454;-72
2022/07/07 10:26:06;;;;;;;4.10;3.80;;;20.90;99.90;;;;;;5003931;28;20520;-73
2022/07/07 10:28:54;;;;;;;4.63;4.33;;;20.40;99.90;;;;;;5001499;28;20509;-74
2022/07/07 10:31:22;;;;;;;5.37;4.23;;;19.90;99.90;;;;;;4999869;28;20446;-73
2022/07/07 10:33:54;;;;;;;3.80;3.60;;;19.80;99.90;;;;;;4994845;28;20947;-73
2022/07/07 10:36:21;;;;;;;2.80;2.70;;;19.50;99.90;;;;;;5001930;28;22426;-73
2022/07/07 10:38:52;;;;;;;2.60;2.40;;;19.10;99.90;;;;;;5000015;28;20447;-73
2022/07/07 10:41:23;;;;;;;2.50;2.30;;;18.80;99.90;;;;;;4997400;28;20512;-73
2022/07/07 10:44:03;;;;;;;3.57;2.70;;;18.60;99.90;;;;;;4998996;28;20486;-72
2022/07/07 10:46:30;;;;;;;2.87;2.67;;;18.70;99.90;;;;;;4997193;28;20859;-73
2022/07/07 10:49:08;;;;;;;4.87;3.43;;;18.90;99.90;;;;;;5001526;28;20873;-73
2022/07/07 10:51:52;;;;;;;4.77;3.10;;;19.20;99.90;;;;;;5000447;28;20458;-73
2022/07/07 10:54:34;;;;;;;3.10;2.90;;;19.60;99.90;;;;;;5000672;28;20454;-73
2022/07/07 10:57:14;;;;;;;3.45;2.50;;;19.80;99.90;;;;;;4993743;28;20836;-71
2022/07/07 11:00:16;;;;;;;3.57;3.23;;;20.10;99.90;;;;;;4995067;28;20282;-71
2022/07/07 11:02:47;;;;;;;3.87;3.37;;;20.50;99.90;;;;;;4938062;29;20568;-70
2022/07/07 11:05:33;;;;;;;3.23;2.93;;;20.90;99.90;;;;;;4985430;28;20498;-71
2022/07/07 11:08:12;;;;;;;3.33;3.00;;;21.10;99.90;;;;;;4995636;28;20943;-72
2022/07/07 11:10:56;;;;;;;4.80;3.17;;;21.10;99.90;;;;;;4996439;28;20457;-71
2022/07/07 11:13:34;;;;;;;3.07;2.83;;;21.10;99.90;;;;;;5002832;28;20421;-73
2022/07/07 11:16:13;;;;;;;6.50;3.27;;;21.30;99.90;;;;;;4993685;28;20486;-72
2022/07/07 11:18:42;;;;;;;5.30;2.90;;;21.60;99.90;;;;;;4998280;28;20451;-73
2022/07/07 11:21:09;;;;;;;3.00;2.80;;;21.70;99.90;;;;;;5002375;28;20452;-71
2022/07/07 11:23:51;;;;;;;3.90;3.00;;;21.90;99.90;;;;;;4999269;28;20561;-73
2022/07/07 11:26:19;;;;;;;4.53;2.90;;;22.20;99.90;;;;;;5003809;28;20489;-71
2022/07/07 11:28:46;;;;;;;2.80;2.10;;;22.50;99.90;;;;;;4998327;28;20456;-72
2022/07/07 11:31:14;;;;;;;3.00;2.80;;;22.60;99.90;;;;;;4999830;28;20627;-71
2022/07/07 11:33:41;;;;;;;3.37;2.50;;;23.00;99.90;;;;;;4996433;28;20450;-71
2022/07/07 11:36:13;;;;;;;3.10;2.30;;;23.30;99.90;;;;;;4995571;28;20495;-72
2022/07/07 11:38:40;;;;;;;2.20;2.00;;;23.50;99.90;;;;;;4995372;28;20883;-71
2022/07/07 11:41:07;;;;;;;3.10;2.20;;;23.30;99.90;;;;;;4997139;28;20451;-72
2022/07/07 11:43:33;;;;;;;2.00;1.90;;;23.10;99.90;;;;;;5003055;28;21026;-72
2022/07/07 11:46:00;;;;;;;2.20;2.10;;;22.90;99.90;;;;;;5001930;28;20462;-69
2022/07/07 11:48:35;;;;;;;2.13;1.93;;;22.70;99.90;;;;;;4999927;28;20533;-69
2022/07/07 11:51:02;;;;;;;2.50;1.50;;;22.60;99.90;;;;;;4996533;28;20917;-71
2022/07/07 11:53:29;;;;;;;3.90;1.60;;;22.70;99.90;;;;;;4998594;28;20203;-70
2022/07/07 11:55:55;;;;;;;2.10;1.60;;;22.70;99.90;;;;;;5002306;28;20486;-70
2022/07/07 11:58:22;;;;;;;2.13;1.50;;;22.70;99.90;;;;;;4996958;28;20951;-71
2022/07/07 12:00:54;;;;;;;1.60;1.37;;;22.80;99.90;;;;;;4996443;28;20451;-71
2022/07/07 12:03:28;;;;;;;2.30;1.23;;;22.80;99.90;;;;;;4999218;28;20450;-71
2022/07/07 12:05:56;;;;;;;1.70;1.40;;;23.00;99.90;;;;;;4996652;28;20496;-71
2022/07/07 12:08:31;;;;;;;4.70;1.97;;;23.70;99.90;;;;;;5001010;28;20459;-71
2022/07/07 12:10:58;;;;;;;1.43;1.23;;;23.90;99.90;;;;;;4994972;28;20522;-71
2022/07/07 12:13:27;;;;;;;2.70;1.50;;;23.80;99.90;;;;;;4995756;28;20458;-71
2022/07/07 12:15:54;;;;;;;1.53;1.20;;;24.20;99.90;;;;;;5000614;28;20483;-73
2022/07/07 12:18:24;;;;;;;4.53;1.47;;;24.30;99.90;;;;;;5001829;28;20490;-73
2022/07/07 12:20:58;;;;;;;9.73;1.80;;;23.90;99.90;;;;;;4992682;28;20517;-74
2022/07/07 12:23:25;;;;;;;1.30;1.20;;;23.30;99.90;;;;;;5004550;28;20446;-73
2022/07/07 12:25:52;;;;;;;2.10;1.50;;;22.90;99.90;;;;;;4998089;28;20475;-74
2022/07/07 12:28:18;;;;;;;1.47;1.37;;;22.60;99.90;;;;;;4997677;28;20518;-74
2022/07/07 12:30:53;;;;;;;4.97;1.47;;;22.20;99.90;;;;;;4997579;28;20473;-74
2022/07/07 12:33:28;;;;;;;2.07;1.47;;;22.10;99.90;;;;;;4995231;28;20536;-74
2022/07/07 12:36:07;;;;;;;1.60;1.43;;;21.90;99.90;;;;;;4995132;28;20536;-74
2022/07/07 12:38:38;;;;;;;2.60;1.30;;;21.80;99.90;;;;;;5000687;28;20458;-74
2022/07/07 12:41:05;;;;;;;5.23;1.37;;;21.50;99.90;;;;;;4997655;28;20505;-74
2022/07/07 12:43:34;;;;;;;2.20;1.53;;;21.40;99.90;;;;;;4994149;28;20803;-74
2022/07/07 12:46:08;;;;;;;1.70;1.60;;;21.40;99.90;;;;;;4995407;28;20475;-74
2022/07/07 12:48:43;;;;;;;7.03;1.60;;;21.30;99.90;;;;;;5002471;28;20458;-73
2022/07/07 12:51:11;;;;;;;1.47;1.37;;;21.50;99.90;;;;;;5000931;28;20454;-73
2022/07/07 12:53:39;;;;;;;2.30;1.40;;;22.00;99.90;;;;;;4994729;28;20505;-74